MHLC/LCE METAR and TAF weather

Enter ICAO airport designator
Station Type Date Time Source
MHLC METAR 2020/03/17 04:00 UTC NOAA

MHLC 170400Z 11003KT 9999 FEW024 23/22 Q1017 A3003 NOSIG


Station Type Date Time Source
MHLC Decoded METAR 2020/03/17 04:00 UTC NOAA

La Ceiba Airport , Honduras (MHLC) 15-44N 086-52W 26M
Mar 17, 2020 - 12:00 AM EDT / 2020.03.17 0400 UTC
Wind: from the ESE (110 degrees) at 3 MPH (3 KT):0
Visibility: greater than 7 mile(s):0
Sky conditions: mostly clear
Temperature: 73 F (23 C)
Dew Point: 71 F (22 C)
Relative Humidity: 94%
Pressure (altimeter): 30.03 in. Hg (1016 hPa)
ob: MHLC 170400Z 11003KT 9999 FEW024 23/22 Q1017 A3003 NOSIG
cycle: 4

Station Type Date Time Source
MHLC TAF 2020/03/28 12:36 UTC NOAA

TAF MHLC 281025Z 2812/2912 00000KT 9999 FEW026 TX32/2819Z TN21/2912Z
BECMG 2816/2818 06010KT
BECMG 2906/2908 00000KT

Example: see airport list